• Join FlightAware (Why Join?)
  • Login
  • US Flag 
03:48AM EDT


 

Airport Tracker/Info


-or-


 

Live Flight TrackerFlight Track Log ✈ AWE754 ✈ 17-Jun-2013 ✈ KMCO - KPHL

Flight Track Log - Related Links

Times and Time Zones

All times are in EDT time to prevent confusion due to time zone crossing. See the AWE754 flight status page for this flight to view local times or setup timezone preferences in your user account.

Time Position Orientation Groundspeed Altitude Reporting Facility
EDT Latitude Longitude Course Direction KTS MPH feet Rate Location/Type
02:34PM 28.8651 -81.3532 355° North  Level FlightAware Approximate
02:35PM 29.0156 -81.3698 350° North  Level FlightAware Approximate
02:35PM 28.2650 -81.4740 North 271 312 8,400  Level FlightAware
02:35PM 28.2570 -81.4950 247° West 276 318 8,900 2,040 Climbing FlightAware
02:36PM 29.1657 -81.3833 North  Level FlightAware Approximate
02:36PM 28.2440 -81.5320 248° West 280 322 9,900  Level FlightAware
02:37PM 28.2220 -81.5900 247° West 286 329 11,500 2,160 Climbing FlightAware
02:37PM 28.2160 -81.6210 258° West 292 336 12,200 2,100 Climbing FlightAware
02:37PM 28.2250 -81.6500 289° West 292 336 13,000 2,100 Climbing FlightAware
02:37PM 28.2350 -81.6620 313° West 296 341 13,300 1,740 Climbing FlightAware
02:38PM 28.2560 -81.6720 337° Northwest 302 348 13,800 1,860 Climbing FlightAware
02:38PM 28.3130 -81.6720 360° North 310 357 15,100 1,440 Climbing FlightAware
02:39PM 28.3730 -81.6620 North 311 358 15,900 480 Climbing FlightAware
02:40PM 28.4380 -81.6490 10° North 325 374 15,800  Descending FlightAware
02:41PM 28.5040 -81.6400 North 334 384 15,900  Climbing FlightAware
02:41PM 28.5650 -81.6320 North 357 411 15,800 -120 Descending FlightAware
02:42PM 28.6190 -81.6250 North 357 411 15,800  Level FlightAware
02:43PM 28.6880 -81.6170 North 357 411 15,800 840 Level FlightAware
02:43PM 28.7580 -81.6100 North 367 422 17,000 1,980 Climbing FlightAware
02:44PM 28.8430 -81.6040 North 375 432 18,400 1,800 Climbing FlightAware
02:44PM 28.8920 -81.6010 North 378 435 19,200 1,500 Climbing FlightAware
02:45PM 28.9660 -81.5970 North 372 428 20,300 1,920 Climbing FlightAware
02:46PM 29.0570 -81.5910 North 371 427 22,400 1,740 Climbing FlightAware
02:47PM 29.1340 -81.5860 North 383 441 23,100 1,020 Climbing FlightAware
02:47PM 29.2000 -81.5820 North 392 451 23,800 1,020 Climbing FlightAware
02:48PM 29.2790 -81.5770 North 399 459 24,500 960 Climbing FlightAware
02:49PM 29.3690 -81.5710 North 409 471 25,300 1,080 Climbing FlightAware
02:50PM 29.4400 -81.5670 North 412 474 26,100 720 Climbing FlightAware
02:50PM 29.5200 -81.5620 North 413 475 26,400 720 Climbing FlightAware
02:51PM 29.4710 -81.5650 183° South 413 475 27,100 540 Climbing FlightAware
02:52PM 29.5310 -81.5610 North 413 475 27,100 1,020 Level FlightAware
02:52PM 29.7650 -81.5460 North 433 498 28,600 1,320 Climbing FlightAware
02:53PM 29.8590 -81.5400 North 441 507 29,200 780 Climbing FlightAware
02:54PM 29.9450 -81.5350 North 446 513 29,800 780 Climbing FlightAware
02:55PM 30.0440 -81.5280 North 449 517 30,400 900 Climbing FlightAware
02:55PM 30.1350 -81.5230 North 446 513 31,300 900 Climbing FlightAware
02:56PM 30.2390 -81.5160 North 448 516 31,900 720 Climbing FlightAware
02:57PM 30.3230 -81.5110 North 449 517 32,400 660 Climbing FlightAware
02:58PM 30.4100 -81.5040 North 450 518 32,900 480 Climbing FlightAware
02:58PM 30.4740 -81.4990 North 455 524 33,000 60 Climbing FlightAware
02:59PM 30.5630 -81.4920 North 453 521 33,000  Level FlightAware
02:59PM 30.6410 -81.4850 North 453 521 33,000  Level FlightAware
03:00PM 30.7330 -81.4750 North 454 522 33,000  Level FlightAware
03:01PM 30.8430 -81.4200 23° Northeast 454 522 33,000  Level FlightAware
03:02PM 30.9080 -81.3740 31° Northeast 457 526 33,000  Level FlightAware
03:03PM 31.0220 -81.2990 29° Northeast 457 526 33,000  Level FlightAware
03:04PM 31.1410 -81.2210 29° Northeast 456 525 33,000  Level FlightAware
03:05PM 31.2180 -81.1710 29° Northeast 456 525 33,000  Level FlightAware
03:05PM 31.2740 -81.1350 29° Northeast 456 525 33,000  Level FlightAware
03:06PM 31.3500 -81.0860 29° Northeast 456 525 33,000  Level FlightAware
03:07PM 31.4030 -81.0510 29° Northeast 456 525 33,000  Level FlightAware
03:08PM 31.5270 -80.9710 29° Northeast 456 525 33,000  Level FlightAware
03:08PM 31.5820 -80.9350 29° Northeast 456 525 33,000  Level FlightAware
03:09PM 31.7500 -80.8170 31° Northeast 453 521 33,000  Level FlightAware
03:10PM 31.8230 -80.7690 29° Northeast 453 521 33,000  Level FlightAware
03:11PM 31.9320 -80.6950 30° Northeast 455 524 33,000  Level FlightAware
03:12PM 32.0370 -80.6230 30° Northeast 454 522 33,000  Level FlightAware
03:13PM 32.1310 -80.5600 30° Northeast 455 524 33,000  Level FlightAware
03:13PM 32.2130 -80.5040 30° Northeast 453 521 33,000  Level FlightAware
03:14PM 32.2950 -80.4480 30° Northeast 453 521 33,000  Level FlightAware
03:15PM 32.3680 -80.3990 30° Northeast 453 521 33,000  Level FlightAware
03:16PM 32.4500 -80.3430 30° Northeast 455 524 33,000  Level FlightAware
03:16PM 32.5130 -80.3000 30° Northeast 455 524 33,000  Level FlightAware
03:17PM 32.5960 -80.2430 30° Northeast 458 527 33,000  Level FlightAware
03:18PM 32.6700 -80.1920 30° Northeast 460 529 33,000  Level FlightAware
03:18PM 32.7530 -80.1350 30° Northeast 461 531 33,000  Level FlightAware
03:19PM 32.8000 -80.1030 30° Northeast 460 529 33,000  Level FlightAware
03:20PM 32.8820 -80.0450 31° Northeast 461 531 33,000  Level FlightAware
03:20PM 32.9500 -79.9840 37° Northeast 462 532 33,000  Level FlightAware
03:21PM 33.0250 -79.9120 39° Northeast 461 531 33,000  Level FlightAware
03:22PM 33.0910 -79.8480 39° Northeast 459 528 33,000  Level FlightAware
03:22PM 33.1580 -79.7840 39° Northeast 459 528 33,000  Level FlightAware
03:23PM 33.2310 -79.7120 40° Northeast 458 527 33,000  Level FlightAware
03:24PM 33.3050 -79.6400 39° Northeast 457 526 33,000  Level FlightAware
03:24PM 33.3710 -79.5760 39° Northeast 459 528 33,000  Level FlightAware
03:25PM 33.4370 -79.5120 39° Northeast 460 529 33,000  Level FlightAware
03:26PM 33.5120 -79.4380 39° Northeast 461 531 33,000  Level FlightAware
03:27PM 33.5780 -79.3730 39° Northeast 461 531 33,000  Level FlightAware
03:27PM 33.6520 -79.3000 39° Northeast 462 532 33,000  Level FlightAware
03:28PM 33.7180 -79.2350 39° Northeast 462 532 33,000  Level FlightAware
03:29PM 33.7840 -79.1700 39° Northeast 462 532 33,000  Level FlightAware
03:29PM 33.8510 -79.1040 39° Northeast 463 533 33,000  Level FlightAware
03:30PM 33.9250 -79.0300 40° Northeast 463 533 33,000  Level FlightAware
03:31PM 33.9990 -78.9560 40° Northeast 463 533 33,000  Level FlightAware
03:31PM 34.0650 -78.8900 40° Northeast 462 532 33,000  Level FlightAware
03:32PM 34.1140 -78.8410 40° Northeast 461 531 33,000  Level FlightAware
03:33PM 34.1800 -78.7750 40° Northeast 461 531 33,000  Level FlightAware
03:33PM 34.2370 -78.7190 39° Northeast 461 531 33,000  Level FlightAware
03:34PM 34.3350 -78.6210 40° Northeast 461 531 33,000  Level FlightAware
03:35PM 34.3890 -78.5680 39° Northeast 461 531 33,000  Level FlightAware
03:36PM 34.3190 -78.6350 218° Southwest 459 528 33,000  Level FlightAware
03:36PM 34.3860 -78.5680 40° Northeast 459 528 33,000  Level FlightAware
03:37PM 34.4350 -78.5170 41° Northeast 459 528 33,000  Level FlightAware
03:38PM 34.5020 -78.4500 39° Northeast 459 528 33,000  Level FlightAware
03:38PM 34.7450 -78.2030 40° Northeast 458 527 33,000  Level FlightAware
03:39PM 34.8110 -78.1340 41° Northeast 459 528 33,000  Level FlightAware
03:40PM 34.9000 -78.0440 40° Northeast 459 528 33,000  Level FlightAware
03:41PM 34.9510 -77.9910 40° Northeast 459 528 33,000  Level FlightAware
03:42PM 35.0160 -77.9250 40° Northeast 459 528 33,000  Level FlightAware
03:42PM 35.0660 -77.8740 40° Northeast 459 528 33,000  Level FlightAware
03:43PM 35.1130 -77.8260 40° Northeast 459 528 33,000  Level FlightAware
03:43PM 35.1610 -77.7760 40° Northeast 459 528 33,000  Level FlightAware
03:44PM 35.2260 -77.7090 40° Northeast 459 528 33,000  Level FlightAware
03:45PM 35.2800 -77.6540 40° Northeast 459 528 33,000  Level FlightAware
03:46PM 35.3630 -77.5690 40° Northeast 459 528 33,000  Level FlightAware
03:46PM 35.4110 -77.5190 40° Northeast 459 528 33,000  Level FlightAware
03:47PM 35.4820 -77.4460 40° Northeast 459 528 33,000  Level FlightAware
03:48PM 35.5350 -77.3920 40° Northeast 459 528 33,000  Level FlightAware
03:49PM 35.6020 -77.3220 40° Northeast 459 528 33,000  Level FlightAware
03:53PM 36.2460 -77.1640 11° North 439 505 33,000  Level FlightAware
03:54PM 36.3070 -77.1790 349° North 439 505 33,000  Level FlightAware
03:54PM 36.3610 -77.1260 38° Northeast 455 524 33,000  Level FlightAware
03:55PM 36.4380 -77.0950 18° North 455 524 33,000  Level FlightAware
03:56PM 36.5020 -77.0690 18° North 455 524 33,000  Level FlightAware
03:56PM 36.6000 -77.0150 24° Northeast 460 529 33,000  Level FlightAware
03:57PM 36.6910 -76.9610 25° Northeast 460 529 33,000  Level FlightAware
03:58PM 36.7930 -76.9020 25° Northeast 460 529 33,000 -540 Level FlightAware
03:59PM 36.8590 -76.8170 46° Northeast 482 555 32,300 -1,860 Descending FlightAware
03:59PM 36.9280 -76.7400 42° Northeast 485 558 31,000 -1,920 Descending FlightAware
04:00PM 36.9820 -76.6810 41° Northeast 489 563 30,000 -1,500 Descending FlightAware
04:00PM 37.0500 -76.6060 41° Northeast 483 556 29,200 -780 Descending FlightAware
04:01PM 37.1150 -76.5330 42° Northeast 475 547 29,000 -180 Descending FlightAware
04:02PM 37.1790 -76.4620 41° Northeast 482 555 29,000  Level FlightAware
04:02PM 37.2420 -76.3910 42° Northeast 484 557 29,000 -120 Level FlightAware
04:03PM 37.3020 -76.3250 41° Northeast 482 555 28,900 -960 Descending FlightAware
04:04PM 37.3610 -76.2570 42° Northeast 475 547 27,900 -1,860 Descending FlightAware
04:04PM 37.4420 -76.1670 41° Northeast 470 541 26,300 -1,800 Descending FlightAware
04:05PM 37.5020 -76.0990 42° Northeast 460 529 25,400 -1,020 Descending FlightAware
04:06PM 37.5540 -76.0390 42° Northeast 456 525 25,100 -300 Descending FlightAware
04:07PM 37.6563 -75.9233 42° Northeast 462 532 25,000 -120 Descending FlightAware ADS-B
04:07PM 37.7052 -75.8674 42° Northeast 462 532 25,000  Level FlightAware ADS-B
04:08PM 37.7533 -75.8124 42° Northeast 463 533 25,000  Level FlightAware ADS-B
04:08PM 37.8059 -75.7524 42° Northeast 462 532 25,000 -420 Level FlightAware ADS-B
04:09PM 37.8559 -75.6952 42° Northeast 458 527 24,600 -1,020 Descending FlightAware ADS-B
04:09PM 37.9034 -75.6406 42° Northeast 461 531 24,000 -1,140 Descending FlightAware ADS-B
04:10PM 37.9500 -75.5870 42° Northeast 459 528 23,500 -1,200 Descending FlightAware
04:10PM 37.9677 -75.5666 42° Northeast 459 528 23,200 -1,440 Descending FlightAware ADS-B
04:10PM 38.0163 -75.5107 42° Northeast 447 514 22,500 -1,380 Descending FlightAware ADS-B
04:11PM 38.0419 -75.4818 42° Northeast 437 503 22,100 -1,500 Descending FlightAware ADS-B
04:11PM 38.0533 -75.4706 38° Northeast 431 496 21,900 -1,440 Descending FlightAware ADS-B
04:11PM 38.1059 -75.4332 29° Northeast 411 473 21,200 -1,380 Descending FlightAware ADS-B
04:12PM 38.1560 -75.4010 27° Northeast 400 460 20,500 -1,500 Descending FlightAware
04:12PM 38.2023 -75.3724 26° Northeast 408 470 19,800 -1,620 Descending FlightAware ADS-B
04:13PM 38.2870 -75.3186 26° Northeast 406 467 18,500 -1,500 Descending FlightAware ADS-B
04:14PM 38.3630 -75.2710 26° Northeast 398 458 17,400 -1,620 Descending FlightAware
04:14PM 38.4082 -75.2417 27° Northeast 402 463 16,600 -1,860 Descending FlightAware ADS-B
04:15PM 38.4630 -75.2068 27° Northeast 384 442 15,600 -1,440 Descending FlightAware ADS-B
04:15PM 38.5101 -75.1768 26° Northeast 375 432 15,100 -600 Descending FlightAware ADS-B
04:16PM 38.5560 -75.1470 27° Northeast 380 437 15,000 -120 Descending FlightAware
04:17PM 38.6260 -75.1030 26° Northeast 377 434 15,000 60 Level FlightAware
04:17PM 38.6726 -75.0731 27° Northeast 374 430 15,100 60 Climbing FlightAware ADS-B
04:18PM 38.7203 -75.0425 27° Northeast 366 421 15,100 -120 Level FlightAware ADS-B
04:18PM 38.7672 -75.0124 27° Northeast 368 423 15,000 -120 Descending FlightAware ADS-B
04:19PM 38.8138 -74.9825 27° Northeast 372 428 15,000  Level FlightAware ADS-B
04:19PM 38.8620 -74.9515 27° Northeast 373 429 15,000  Level FlightAware ADS-B
04:19PM 38.8821 -74.9410 22° Northeast 369 425 15,000  Level FlightAware ADS-B
04:20PM 38.9093 -74.9338 12° North 362 417 15,000 -180 Level FlightAware ADS-B
04:20PM 38.9633 -74.9308 North 362 417 14,900 -960 Descending FlightAware ADS-B
04:21PM 39.0372 -74.9264 North 359 413 13,800 -1,560 Descending FlightAware ADS-B
04:21PM 39.0879 -74.9235 North 351 404 13,000 -1,500 Descending FlightAware ADS-B
04:22PM 39.1364 -74.9206 North 342 394 12,300 -1,620 Descending FlightAware ADS-B
04:23PM 39.1852 -74.9177 North 337 388 11,400 -1,740 Descending FlightAware ADS-B
04:23PM 39.2336 -74.9147 North 329 379 10,500 -1,620 Descending FlightAware ADS-B
04:23PM 39.2648 -74.9130 North 323 372 10,000 -900 Descending FlightAware ADS-B
04:24PM 39.2955 -74.9111 North 304 350 9,900 -360 Descending FlightAware ADS-B
04:24PM 39.3176 -74.9099 North 291 335 9,800 -600 Descending FlightAware ADS-B
04:24PM 39.3393 -74.9086 North 285 328 9,600 -960 Descending FlightAware ADS-B
04:25PM 39.3607 -74.9074 North 281 323 9,300 -1,140 Descending FlightAware ADS-B
04:25PM 39.3683 -74.9071 North 280 322 9,200 -1,020 Descending FlightAware ADS-B
04:25PM 39.3755 -74.9077 356° North 278 320 9,100 -480 Descending FlightAware ADS-B
04:25PM 39.3858 -74.9103 349° North 276 318 9,100 -300 Level FlightAware ADS-B
04:25PM 39.4046 -74.9172 344° North 278 320 9,000 -240 Descending FlightAware ADS-B
04:25PM 39.4237 -74.9243 344° North 281 323 9,000  Level FlightAware ADS-B
04:26PM 39.4423 -74.9312 344° North 275 316 9,000  Level FlightAware ADS-B
04:26PM 39.4606 -74.9381 344° North 272 313 9,000 -420 Level FlightAware ADS-B
04:26PM 39.4786 -74.9448 344° North 267 307 8,800 -1,020 Descending FlightAware ADS-B
04:26PM 39.4966 -74.9516 344° North 263 303 8,500 -1,140 Descending FlightAware ADS-B
04:27PM 39.5168 -74.9592 344° North 258 297 8,200 -900 Descending FlightAware ADS-B
04:27PM 39.5284 -74.9637 343° North 258 297 8,100 -480 Descending FlightAware ADS-B
04:27PM 39.5328 -74.9656 342° North 257 296 8,100 -600 Level FlightAware ADS-B
04:27PM 39.5404 -74.9707 333° Northwest 252 290 8,000 -480 Descending FlightAware ADS-B
04:27PM 39.5450 -74.9755 321° Northwest 251 289 8,000  Level FlightAware ADS-B
04:27PM 39.5476 -74.9791 313° West 250 288 8,000  Level FlightAware ADS-B
04:27PM 39.5503 -74.9841 305° West 249 287 8,000  Level FlightAware ADS-B
04:27PM 39.5525 -74.9895 298° West 248 285 8,000  Level FlightAware ADS-B
04:27PM 39.5546 -74.9979 288° West 248 285 8,000  Level FlightAware ADS-B
04:27PM 39.5553 -75.0027 281° West 249 287 8,000  Level FlightAware ADS-B
04:28PM 39.5554 -75.0089 271° West 250 288 8,000  Level FlightAware ADS-B
04:28PM 39.5546 -75.0170 263° West 253 291 8,000  Level FlightAware ADS-B
04:28PM 39.5535 -75.0220 254° West 254 292 8,000 960 Level FlightAware ADS-B
04:28PM 39.5522 -75.0265 249° West 256 295 8,100 840 Climbing FlightAware ADS-B
04:28PM 39.5504 -75.0313 244° Southwest 258 297 8,100  Level FlightAware ADS-B
04:28PM 39.5463 -75.0399 238° Southwest 259 298 8,100 -420 Level FlightAware ADS-B
04:28PM 39.5396 -75.0523 235° Southwest 260 299 8,000 -240 Descending FlightAware ADS-B
04:28PM 39.5287 -75.0717 234° Southwest 260 299 8,000  Level FlightAware ADS-B
04:29PM 39.5088 -75.1075 234° Southwest 260 299 8,000  Level FlightAware ADS-B
04:29PM 39.4966 -75.1298 235° Southwest 261 300 8,000  Level FlightAware ADS-B
04:29PM 39.4853 -75.1505 235° Southwest 261 300 8,000  Level FlightAware ADS-B
04:30PM 39.4738 -75.1712 234° Southwest 255 293 8,000  Level FlightAware ADS-B
04:30PM 39.4608 -75.1944 234° Southwest 248 285 8,000  Level FlightAware ADS-B
04:30PM 39.4481 -75.2166 233° Southwest 226 260 8,000  Level FlightAware ADS-B
04:31PM 39.4382 -75.2341 234° Southwest 223 257 8,000  Level FlightAware ADS-B
04:31PM 39.4325 -75.2496 245° Southwest 219 252 8,000  Level FlightAware ADS-B
04:31PM 39.4320 -75.2540 262° West 217 250 8,000  Level FlightAware ADS-B
04:31PM 39.4320 -75.2593 270° West 217 250 8,000  Level FlightAware ADS-B
04:31PM 39.4325 -75.2638 278° West 216 249 8,000  Level FlightAware ADS-B
04:31PM 39.4334 -75.2676 287° West 216 249 8,000  Level FlightAware ADS-B
04:31PM 39.4350 -75.2722 294° West 216 249 8,000  Level FlightAware ADS-B
04:31PM 39.4366 -75.2757 301° West 217 250 8,000  Level FlightAware ADS-B
04:31PM 39.4388 -75.2791 310° West 218 251 8,000 840 Level FlightAware ADS-B
04:31PM 39.4422 -75.2831 318° Northwest 220 253 8,100 720 Climbing FlightAware ADS-B
04:31PM 39.4450 -75.2855 326° Northwest 222 255 8,100  Level FlightAware ADS-B
04:31PM 39.4483 -75.2877 333° Northwest 224 258 8,100 -780 Level FlightAware ADS-B
04:31PM 39.4531 -75.2897 342° North 227 261 8,000 -600 Descending FlightAware ADS-B
04:32PM 39.4598 -75.2906 354° North 233 268 8,000 300 Level FlightAware ADS-B
04:32PM 39.4709 -75.2879 11° North 240 276 8,100 300 Climbing FlightAware ADS-B
04:32PM 39.4787 -75.2836 23° Northeast 243 280 8,100 -420 Level FlightAware ADS-B
04:32PM 39.5013 -75.2700 25° Northeast 243 280 7,900 -780 Descending FlightAware ADS-B
04:32PM 39.5181 -75.2602 24° Northeast 242 278 7,600 -960 Descending FlightAware ADS-B
04:33PM 39.5346 -75.2505 24° Northeast 241 277 7,400 -900 Descending FlightAware ADS-B
04:33PM 39.5544 -75.2387 25° Northeast 238 274 7,100 -720 Descending FlightAware ADS-B
04:33PM 39.5691 -75.2298 25° Northeast 228 262 7,000  Descending FlightAware ADS-B
04:34PM 39.5828 -75.2214 25° Northeast 213 245 7,100  Climbing FlightAware ADS-B
04:34PM 39.5964 -75.2131 25° Northeast 211 243 7,000 -240 Descending FlightAware ADS-B
04:34PM 39.6107 -75.2045 25° Northeast 210 242 7,000  Level FlightAware ADS-B
04:34PM 39.6248 -75.1960 25° Northeast 213 245 7,000  Level FlightAware ADS-B
04:35PM 39.6405 -75.1865 25° Northeast 214 246 7,000  Level FlightAware ADS-B
04:35PM 39.6570 -75.1765 25° Northeast 214 246 7,000 -180 Level FlightAware ADS-B
04:35PM 39.6717 -75.1675 25° Northeast 213 245 6,900 -420 Descending FlightAware ADS-B
04:36PM 39.6865 -75.1585 25° Northeast 215 247 6,800 -600 Descending FlightAware ADS-B
04:36PM 39.7004 -75.1499 25° Northeast 219 252 6,600 -780 Descending FlightAware ADS-B
04:36PM 39.7145 -75.1412 25° Northeast 218 251 6,400 -780 Descending FlightAware ADS-B
04:36PM 39.7281 -75.1328 25° Northeast 217 250 6,200 -600 Descending FlightAware ADS-B
04:37PM 39.7418 -75.1245 25° Northeast 214 246 6,100 -240 Descending FlightAware ADS-B
04:37PM 39.7558 -75.1159 25° Northeast 214 246 6,100  Level FlightAware ADS-B
04:37PM 39.7693 -75.1077 25° Northeast 213 245 6,100  Level FlightAware ADS-B
04:37PM 39.7841 -75.0986 25° Northeast 212 244 6,100  Level FlightAware ADS-B
04:38PM 39.7961 -75.0907 27° Northeast 214 246 6,100  Level FlightAware ADS-B
04:38PM 39.7996 -75.0872 38° Northeast 216 249 6,100  Level FlightAware ADS-B
04:38PM 39.8040 -75.0805 49° Northeast 220 253 6,100  Level FlightAware ADS-B
04:38PM 39.8058 -75.0763 61° Northeast 221 254 6,100  Level FlightAware ADS-B
04:38PM 39.8092 -75.0645 69° East 225 259 6,100  Level FlightAware ADS-B
04:38PM 39.8141 -75.0380 76° East 225 259 6,100  Level FlightAware ADS-B
04:39PM 39.8183 -75.0150 77° East 228 262 6,100  Level FlightAware ADS-B
04:39PM 39.8224 -74.9946 75° East 228 262 6,100  Level FlightAware ADS-B
04:39PM 39.8272 -74.9715 75° East 228 262 6,100  Level FlightAware ADS-B
04:39PM 39.8314 -74.9517 75° East 226 260 6,100  Level FlightAware ADS-B
04:40PM 39.8356 -74.9314 75° East 226 260 6,100  Level FlightAware ADS-B
04:40PM 39.8400 -74.9107 75° East 223 257 6,100  Level FlightAware ADS-B
04:40PM 39.8439 -74.8912 75° East 223 257 6,100 -240 Level FlightAware ADS-B
04:40PM 39.8481 -74.8706 75° East 222 255 6,000 -720 Descending FlightAware ADS-B
04:41PM 39.8508 -74.8576 75° East 226 260 5,800 -1,080 Descending FlightAware ADS-B
04:41PM 39.8533 -74.8496 68° East 225 259 5,700 -540 Descending FlightAware ADS-B
04:41PM 39.8562 -74.8439 56° Northeast 221 254 5,700 -600 Level FlightAware ADS-B
04:41PM 39.8606 -74.8383 44° Northeast 219 252 5,600 -600 Descending FlightAware ADS-B
04:41PM 39.8641 -74.8353 33° Northeast 218 251 5,600 -780 Level FlightAware ADS-B
04:41PM 39.8677 -74.8331 25° Northeast 216 249 5,500 -900 Descending FlightAware ADS-B
04:41PM 39.8709 -74.8319 16° North 214 246 5,500 -600 Level FlightAware ADS-B
04:41PM 39.8777 -74.8311 North 208 239 5,400 -900 Descending FlightAware ADS-B
04:41PM 39.8839 -74.8317 356° North 206 237 5,300 -660 Descending FlightAware ADS-B
04:42PM 39.9054 -74.8358 352° North 207 238 5,100 -480 Descending FlightAware ADS-B
04:42PM 39.9090 -74.8373 342° North 202 232 5,100  Level FlightAware ADS-B
04:42PM 39.9142 -74.8411 331° Northwest 196 226 5,100  Level FlightAware ADS-B
04:42PM 39.9174 -74.8450 317° Northwest 192 221 5,100  Level FlightAware ADS-B
04:42PM 39.9191 -74.8478 308° West 191 220 5,100  Level FlightAware ADS-B
04:42PM 39.9224 -74.8543 304° West 191 220 5,100 -300 Level FlightAware ADS-B
04:42PM 39.9281 -74.8693 296° West 190 219 5,000 -720 Descending FlightAware ADS-B
04:42PM 39.9313 -74.8810 290° West 194 223 4,800 -1,200 Descending FlightAware ADS-B
04:43PM 39.9372 -74.9030 289° West 195 224 4,400 -1,140 Descending FlightAware ADS-B
04:43PM 39.9393 -74.9164 282° West 192 221 4,200 -1,200 Descending FlightAware ADS-B
04:43PM 39.9389 -74.9200 262° West 191 220 4,100 -900 Descending FlightAware ADS-B
04:43PM 39.9378 -74.9242 251° West 191 220 4,100 -720 Level FlightAware ADS-B
04:43PM 39.9359 -74.9294 245° Southwest 192 221 4,000 -1,320 Descending FlightAware ADS-B
04:43PM 39.9324 -74.9386 244° Southwest 194 223 3,800 -1,200 Descending FlightAware ADS-B
04:43PM 39.9302 -74.9461 249° West 194 223 3,700 -600 Descending FlightAware ADS-B
04:44PM 39.9290 -74.9507 251° West 193 222 3,700 -900 Level FlightAware ADS-B
04:44PM 39.9256 -74.9680 256° West 191 220 3,400 -1,080 Descending FlightAware ADS-B
04:44PM 39.9226 -74.9834 256° West 190 219 3,200 -900 Descending FlightAware ADS-B
04:44PM 39.9197 -74.9977 255° West 186 214 3,000 -840 Descending FlightAware ADS-B
04:45PM 39.9158 -75.0158 254° West 180 207 2,800 -600 Descending FlightAware ADS-B
04:45PM 39.9113 -75.0397 256° West 173 199 2,600 -600 Descending FlightAware ADS-B
04:45PM 39.9082 -75.0564 256° West 170 196 2,400 -660 Descending FlightAware ADS-B
04:46PM 39.9042 -75.0773 256° West 166 191 2,200 -720 Descending FlightAware ADS-B
04:46PM 39.9014 -75.0911 255° West 160 184 2,000 -660 Descending FlightAware ADS-B
04:46PM 39.8989 -75.1037 256° West 150 173 1,900 -780 Descending FlightAware ADS-B
04:46PM 39.8956 -75.1198 255° West 150 173 1,600 -840 Descending FlightAware ADS-B
04:47PM 39.8939 -75.1290 256° West 148 170 1,500 -720 Descending FlightAware ADS-B
04:47PM 39.8913 -75.1422 256° West 146 168 1,300 -840 Descending FlightAware ADS-B
04:47PM 39.8889 -75.1539 255° West 142 163 1,100 -840 Descending FlightAware ADS-B
04:47PM 39.8864 -75.1668 256° West 140 161 900 -780 Descending FlightAware ADS-B
04:48PM 39.8839 -75.1794 256° West 138 159 700 -780 Descending FlightAware ADS-B
04:48PM 39.8811 -75.1934 255° West 138 159 500 -720 Descending FlightAware ADS-B